Time;durP1;ratioP1;P1;durP2;ratioP2;P2;SDS_P1;SDS_P2;PMS_P1;PMS_P2;Temp;Humidity;BMP_temperature;BMP_pressure;BME280_temperature;BME280_humidity;BME280_pressure;Samples;Min_cycle;Max_cycle;Signal;HPM_P1;HPM_P2
2022/12/05 00:01:27;;;;;;;18.48;12.15;;;11.30;46.20;;;;;;4993227;28;20223;-51
2022/12/05 00:03:55;;;;;;;16.02;12.15;;;11.40;46.00;;;;;;4992839;28;20673;-51
2022/12/05 00:06:22;;;;;;;13.88;11.55;;;11.40;45.80;;;;;;4993286;28;20625;-51
2022/12/05 00:08:49;;;;;;;14.90;11.57;;;11.40;45.90;;;;;;4993166;28;20167;-51
2022/12/05 00:11:23;;;;;;;15.48;12.30;;;11.40;45.90;;;;;;4993015;28;20191;-49
2022/12/05 00:13:50;;;;;;;18.40;12.15;;;11.40;45.80;;;;;;4992897;28;20238;-48
2022/12/05 00:16:19;;;;;;;17.95;13.82;;;11.40;45.60;;;;;;4992962;28;20585;-48
2022/12/05 00:18:45;;;;;;;16.83;13.55;;;11.40;45.80;;;;;;4993020;28;20176;-48
2022/12/05 00:21:23;;;;;;;17.47;12.57;;;11.30;45.70;;;;;;4992902;28;20269;-48
2022/12/05 00:23:49;;;;;;;15.45;11.70;;;11.40;45.90;;;;;;4992663;28;20406;-48
2022/12/05 00:26:16;;;;;;;17.23;12.40;;;11.40;45.80;;;;;;4993040;28;20175;-48
2022/12/05 00:28:42;;;;;;;20.77;13.30;;;11.40;45.80;;;;;;4992857;28;20160;-48
2022/12/05 00:31:12;;;;;;;20.42;13.50;;;11.30;45.80;;;;;;4992868;28;20195;-48
2022/12/05 00:33:38;;;;;;;16.55;12.32;;;11.30;45.70;;;;;;4992649;28;20195;-48
2022/12/05 00:36:13;;;;;;;17.75;12.57;;;11.30;45.80;;;;;;4992759;28;20182;-48
2022/12/05 00:38:41;;;;;;;18.85;13.10;;;11.40;45.80;;;;;;4991558;28;20213;-48
2022/12/05 00:41:08;;;;;;;18.20;13.48;;;11.40;45.80;;;;;;4992633;28;20210;-48
2022/12/05 00:43:34;;;;;;;19.00;12.88;;;11.40;45.60;;;;;;4992459;28;20225;-48
2022/12/05 00:46:06;;;;;;;19.20;13.10;;;11.40;45.50;;;;;;4992703;28;20229;-48
2022/12/05 00:48:32;;;;;;;18.13;12.23;;;11.40;45.60;;;;;;4992128;28;20205;-48
2022/12/05 00:51:04;;;;;;;16.95;11.93;;;11.40;45.60;;;;;;4992478;28;20215;-49
2022/12/05 00:53:31;;;;;;;16.35;12.15;;;11.40;45.60;;;;;;4992856;28;20692;-48
2022/12/05 00:56:04;;;;;;;17.23;13.13;;;11.40;45.30;;;;;;4992495;28;20172;-48
2022/12/05 00:58:31;;;;;;;16.38;12.65;;;11.40;45.70;;;;;;4992646;28;20229;-48
2022/12/05 01:00:57;;;;;;;22.52;14.30;;;11.40;45.60;;;;;;4992476;28;20202;-48
2022/12/05 01:03:23;;;;;;;18.20;13.70;;;11.40;45.50;;;;;;4992319;28;20167;-48
2022/12/05 01:05:48;;;;;;;19.07;14.73;;;11.40;45.50;;;;;;4992416;28;20445;-48
2022/12/05 01:08:14;;;;;;;17.33;13.80;;;11.40;45.60;;;;;;4992481;28;20808;-49
2022/12/05 01:10:40;;;;;;;17.53;13.30;;;11.40;45.60;;;;;;4992595;28;20238;-49
2022/12/05 01:13:05;;;;;;;16.30;11.80;;;11.50;45.70;;;;;;4992232;28;20179;-48
2022/12/05 01:15:35;;;;;;;15.73;12.30;;;11.50;45.60;;;;;;4992447;28;20182;-49
2022/12/05 01:18:01;;;;;;;16.60;13.60;;;11.50;45.40;;;;;;4992527;28;20211;-48
2022/12/05 01:20:27;;;;;;;20.60;13.30;;;11.60;45.40;;;;;;4992327;28;20238;-48
2022/12/05 01:22:53;;;;;;;16.93;11.80;;;11.50;45.50;;;;;;4992132;28;20259;-49
2022/12/05 01:25:19;;;;;;;23.70;13.80;;;11.50;45.50;;;;;;4992242;28;20446;-48
2022/12/05 01:27:44;;;;;;;21.40;13.37;;;11.50;45.40;;;;;;4992337;28;20540;-49
2022/12/05 01:30:10;;;;;;;22.23;14.57;;;11.50;45.50;;;;;;4992181;28;20191;-49
2022/12/05 01:32:36;;;;;;;19.52;14.07;;;11.50;45.60;;;;;;4992028;28;20249;-49
2022/12/05 01:35:02;;;;;;;21.17;13.70;;;11.50;45.70;;;;;;4992269;28;20638;-48
2022/12/05 01:37:27;;;;;;;16.73;12.83;;;11.50;46.50;;;;;;4992201;28;20164;-48
2022/12/05 01:39:53;;;;;;;16.93;12.80;;;11.50;45.60;;;;;;4992102;28;20586;-48
2022/12/05 01:42:19;;;;;;;17.50;13.50;;;11.60;45.60;;;;;;4992021;28;20167;-48
2022/12/05 01:44:47;;;;;;;17.27;12.97;;;11.60;45.60;;;;;;4992133;28;20195;-49
2022/12/05 01:47:17;;;;;;;18.65;13.93;;;11.60;45.30;;;;;;4992185;28;20179;-48
2022/12/05 01:49:43;;;;;;;18.98;13.75;;;11.60;45.50;;;;;;4991953;28;20207;-48
2022/12/05 01:52:20;;;;;;;15.73;12.75;;;11.60;45.60;;;;;;4991862;28;20183;-48
2022/12/05 01:54:48;;;;;;;17.85;13.30;;;11.60;45.20;;;;;;4992122;28;20565;-49
2022/12/05 01:57:15;;;;;;;14.15;11.90;;;11.60;45.60;;;;;;4991998;28;20179;-48
2022/12/05 01:59:46;;;;;;;22.98;14.48;;;11.60;45.60;;;;;;4992886;28;20198;-48
2022/12/05 02:02:12;;;;;;;21.08;13.85;;;11.60;45.60;;;;;;4995396;28;20796;-49
2022/12/05 02:04:47;;;;;;;20.50;14.38;;;11.60;45.50;;;;;;4995342;28;20195;-48
2022/12/05 02:07:13;;;;;;;16.25;12.57;;;11.60;45.40;;;;;;4995474;28;20250;-48
2022/12/05 02:09:39;;;;;;;20.40;14.38;;;11.60;45.60;;;;;;4995336;28;20195;-48
2022/12/05 02:12:05;;;;;;;19.00;13.50;;;11.60;45.40;;;;;;4995112;28;20170;-48
2022/12/05 02:14:58;;;;;;;24.40;15.37;;;11.60;45.30;;;;;;4995359;28;20167;-48
2022/12/05 02:18:01;;;;;;;18.63;12.50;;;11.60;45.60;;;;;;4995298;28;20429;-49
2022/12/05 02:20:47;;;;;;;18.83;13.98;;;11.60;45.60;;;;;;4995103;28;20285;-49
2022/12/05 02:23:45;;;;;;;19.42;12.35;;;11.60;45.60;;;;;;4994915;28;20690;-49
2022/12/05 02:26:40;;;;;;;17.92;13.15;;;11.60;45.60;;;;;;4995141;28;20218;-48
2022/12/05 02:29:51;;;;;;;18.65;13.82;;;11.60;45.60;;;;;;4995070;28;20183;-49
2022/12/05 02:32:44;;;;;;;18.52;13.82;;;11.60;45.70;;;;;;4983327;28;20322;-48
2022/12/05 02:36:02;;;;;;;18.10;12.60;;;11.60;45.80;;;;;;4994955;28;20230;-48
2022/12/05 02:38:31;;;;;;;19.10;12.02;;;11.60;45.70;;;;;;4990395;28;20175;-49
2022/12/05 02:41:24;;;;;;;16.65;12.50;;;11.50;45.80;;;;;;4994743;28;20233;-49
2022/12/05 02:43:58;;;;;;;17.63;13.98;;;11.50;45.90;;;;;;4994470;28;20178;-49
2022/12/05 02:46:28;;;;;;;18.10;13.82;;;11.50;46.00;;;;;;4994645;28;20171;-48
2022/12/05 02:49:01;;;;;;;17.42;13.40;;;11.50;46.00;;;;;;4994778;28;20176;-48
2022/12/05 02:51:32;;;;;;;18.48;13.40;;;11.50;46.00;;;;;;4994498;28;20199;-48
2022/12/05 02:54:02;;;;;;;17.38;13.27;;;11.50;45.90;;;;;;4994375;28;20172;-48
2022/12/05 02:56:31;;;;;;;15.27;12.68;;;11.50;46.00;;;;;;4994547;28;20184;-49
2022/12/05 02:58:56;;;;;;;17.02;12.70;;;11.60;46.00;;;;;;4994417;28;20529;-49
2022/12/05 03:01:28;;;;;;;19.20;13.67;;;11.60;46.00;;;;;;4994332;28;20183;-48
2022/12/05 03:03:56;;;;;;;17.00;12.63;;;11.50;45.80;;;;;;4994109;28;20178;-48
2022/12/05 03:06:30;;;;;;;16.45;10.40;;;11.50;46.00;;;;;;4994448;28;20167;-49
2022/12/05 03:09:09;;;;;;;18.70;13.35;;;11.50;46.10;;;;;;4994324;28;20172;-48
2022/12/05 03:11:45;;;;;;;17.67;12.55;;;11.50;46.10;;;;;;4993811;28;20171;-48
2022/12/05 03:14:20;;;;;;;18.90;12.25;;;11.60;46.00;;;;;;4994339;28;20572;-48
2022/12/05 03:16:52;;;;;;;16.67;13.43;;;11.60;46.00;;;;;;4994166;28;20644;-48
2022/12/05 03:19:25;;;;;;;17.00;12.02;;;11.60;46.00;;;;;;4994025;28;20569;-49
2022/12/05 03:22:15;;;;;;;15.98;12.73;;;11.60;46.00;;;;;;4993839;28;20229;-48
2022/12/05 03:24:41;;;;;;;19.02;12.55;;;11.50;46.00;;;;;;4993950;28;20191;-49
2022/12/05 03:27:24;;;;;;;20.23;12.20;;;11.50;46.20;;;;;;4993924;28;20538;-48
2022/12/05 03:30:00;;;;;;;16.58;11.18;;;11.50;46.20;;;;;;4993874;28;20194;-48
2022/12/05 03:32:34;;;;;;;16.02;11.63;;;11.50;46.30;;;;;;4993632;28;20250;-48
2022/12/05 03:35:18;;;;;;;16.55;12.77;;;11.50;46.30;;;;;;4993819;28;20509;-48
2022/12/05 03:37:55;;;;;;;14.98;11.40;;;11.50;46.30;;;;;;4993784;28;20218;-49
2022/12/05 03:40:36;;;;;;;16.20;13.15;;;11.50;46.30;;;;;;4993637;28;20557;-48
2022/12/05 03:44:06;;;;;;;14.95;11.40;;;11.50;46.40;;;;;;4993451;28;20171;-49
2022/12/05 03:46:38;;;;;;;15.73;11.98;;;11.50;46.30;;;;;;4956942;28;20183;-48
2022/12/05 03:49:25;;;;;;;15.25;11.05;;;11.40;46.30;;;;;;4971806;28;20211;-49
2022/12/05 03:52:10;;;;;;;17.92;12.07;;;11.50;46.50;;;;;;4971626;28;20195;-49
2022/12/05 03:54:46;;;;;;;16.58;10.88;;;11.50;46.50;;;;;;4971670;28;20193;-49
2022/12/05 03:57:20;;;;;;;16.58;11.75;;;11.50;46.50;;;;;;4971560;28;20716;-48
2022/12/05 04:00:00;;;;;;;15.15;11.23;;;11.40;46.30;;;;;;4971629;28;20203;-48
2022/12/05 04:02:44;;;;;;;13.55;11.25;;;11.40;46.30;;;;;;4971402;28;20653;-49
2022/12/05 04:05:50;;;;;;;15.40;11.02;;;11.40;46.30;;;;;;4971482;28;20203;-49
2022/12/05 04:08:41;;;;;;;18.60;11.75;;;11.50;46.30;;;;;;4969900;28;20202;-48
2022/12/05 04:11:14;;;;;;;14.82;11.07;;;11.50;46.20;;;;;;4971421;28;20196;-49
2022/12/05 04:13:53;;;;;;;15.68;11.02;;;11.50;46.10;;;;;;4971177;28;20745;-49
2022/12/05 04:22:31;;;;;;;16.50;10.75;;;11.50;46.00;;;;;;4992124;28;20163;-49
2022/12/05 04:27:49;;;;;;;10.85;9.23;;;11.40;46.10;;;;;;4993276;28;20189;-49
2022/12/05 04:30:19;;;;;;;14.57;11.25;;;11.40;46.10;;;;;;4992816;28;20187;-49
2022/12/05 04:32:53;;;;;;;12.70;10.25;;;11.40;46.10;;;;;;4992611;28;20724;-49
2022/12/05 04:35:33;;;;;;;14.10;10.05;;;11.50;46.10;;;;;;4992797;28;20170;-49
2022/12/05 04:38:08;;;;;;;13.85;10.30;;;11.40;46.00;;;;;;4992758;28;20190;-49
2022/12/05 04:40:47;;;;;;;15.00;10.63;;;11.50;46.00;;;;;;4992625;28;20672;-49
2022/12/05 04:43:14;;;;;;;13.80;9.88;;;11.40;45.90;;;;;;4992598;28;20206;-52
2022/12/05 04:45:41;;;;;;;12.10;9.18;;;11.40;46.00;;;;;;4992595;28;20198;-51
2022/12/05 04:48:12;;;;;;;12.88;9.65;;;11.40;46.00;;;;;;4992629;28;20178;-51
2022/12/05 04:50:41;;;;;;;12.55;11.02;;;11.50;46.10;;;;;;4992434;28;20697;-51
2022/12/05 04:53:09;;;;;;;11.30;9.50;;;11.50;46.00;;;;;;4992419;28;20561;-49
2022/12/05 04:55:38;;;;;;;13.55;10.23;;;11.50;46.00;;;;;;4992484;28;20229;-49
2022/12/05 04:58:28;;;;;;;13.07;9.82;;;11.50;45.90;;;;;;4992536;28;20253;-49
2022/12/05 05:01:42;;;;;;;11.55;8.40;;;11.50;45.80;;;;;;4992139;28;20218;-48
2022/12/05 05:04:18;;;;;;;14.23;9.85;;;11.50;46.00;;;;;;4990941;28;20545;-49
2022/12/05 05:06:44;;;;;;;11.80;9.63;;;11.50;45.90;;;;;;4992560;28;20164;-49
2022/12/05 05:09:10;;;;;;;13.73;9.50;;;11.50;45.90;;;;;;4992315;28;20171;-48
2022/12/05 05:11:37;;;;;;;11.85;8.80;;;11.50;45.90;;;;;;4992368;28;20254;-49
2022/12/05 05:14:03;;;;;;;13.23;10.63;;;11.50;45.90;;;;;;4992304;28;20175;-49
2022/12/05 05:16:36;;;;;;;13.68;9.10;;;11.50;45.90;;;;;;4992279;28;20252;-49
2022/12/05 05:19:02;;;;;;;11.75;9.80;;;11.50;45.90;;;;;;4992347;28;20553;-49
2022/12/05 05:21:30;;;;;;;10.45;8.93;;;11.50;45.90;;;;;;4992236;28;20192;-48
2022/12/05 05:23:56;;;;;;;14.90;10.82;;;11.40;45.80;;;;;;4992016;28;20530;-49
2022/12/05 05:26:23;;;;;;;12.90;10.13;;;11.50;46.00;;;;;;4992358;28;20174;-49
2022/12/05 05:28:50;;;;;;;12.55;9.77;;;11.50;46.00;;;;;;4992200;28;20407;-49
2022/12/05 05:31:17;;;;;;;11.88;8.68;;;11.50;45.90;;;;;;4992174;28;20290;-49
2022/12/05 05:33:43;;;;;;;10.90;8.48;;;11.50;45.90;;;;;;4993223;28;20180;-49
2022/12/05 05:36:13;;;;;;;11.15;9.98;;;11.50;45.80;;;;;;4995952;28;20258;-48
2022/12/05 05:38:41;;;;;;;11.48;9.80;;;11.50;45.80;;;;;;4995922;28;20522;-49
2022/12/05 05:41:22;;;;;;;13.20;9.77;;;11.50;45.80;;;;;;4995768;28;20199;-49
2022/12/05 05:43:48;;;;;;;12.27;9.10;;;11.50;46.00;;;;;;4995553;28;20171;-51
2022/12/05 05:46:16;;;;;;;12.38;10.35;;;11.40;45.80;;;;;;4995812;28;20226;-51
2022/12/05 05:48:42;;;;;;;11.80;9.30;;;11.50;46.80;;;;;;4995669;28;20314;-51
2022/12/05 05:51:10;;;;;;;11.70;9.80;;;11.50;46.10;;;;;;4995585;28;20613;-51
2022/12/05 05:53:36;;;;;;;12.95;10.05;;;11.50;46.00;;;;;;4995413;28;20222;-51
2022/12/05 05:56:07;;;;;;;12.80;8.77;;;11.50;45.90;;;;;;4995623;28;20179;-51
2022/12/05 05:58:33;;;;;;;10.73;8.80;;;11.50;45.90;;;;;;4995571;28;20234;-51
2022/12/05 06:01:07;;;;;;;11.35;9.45;;;11.50;45.90;;;;;;4995545;28;20203;-51
2022/12/05 06:03:33;;;;;;;10.52;9.48;;;11.60;45.80;;;;;;4995225;28;20254;-51
2022/12/05 06:06:01;;;;;;;11.02;9.73;;;11.50;45.60;;;;;;4995313;28;20550;-51
2022/12/05 06:08:34;;;;;;;10.18;8.95;;;11.50;45.70;;;;;;4995341;28;20562;-51
2022/12/05 06:11:05;;;;;;;14.27;10.73;;;11.50;45.80;;;;;;4995366;28;20203;-51
2022/12/05 06:13:31;;;;;;;12.05;9.07;;;11.50;45.90;;;;;;4995075;28;20664;-51
2022/12/05 06:15:56;;;;;;;12.90;9.30;;;11.50;46.00;;;;;;4995258;28;20261;-51
2022/12/05 06:18:22;;;;;;;13.13;9.03;;;11.50;46.00;;;;;;4995129;28;20665;-51
2022/12/05 06:20:52;;;;;;;11.63;9.53;;;11.50;46.00;;;;;;4995075;28;20886;-51
2022/12/05 06:23:18;;;;;;;13.82;8.98;;;11.50;46.00;;;;;;4994864;28;20525;-51
2022/12/05 06:25:48;;;;;;;14.40;9.70;;;11.50;46.00;;;;;;4994934;28;20213;-51
2022/12/05 06:28:14;;;;;;;13.57;9.80;;;11.50;45.90;;;;;;4994983;28;20218;-51
2022/12/05 06:30:40;;;;;;;11.57;8.68;;;11.50;45.90;;;;;;4994841;28;20203;-51
2022/12/05 06:33:06;;;;;;;14.17;11.13;;;11.50;45.80;;;;;;4994738;28;20506;-51
2022/12/05 06:35:32;;;;;;;17.43;11.27;;;11.50;45.60;;;;;;4994776;28;20195;-51
2022/12/05 06:37:57;;;;;;;15.10;11.30;;;11.50;45.60;;;;;;4994837;28;20684;-51
2022/12/05 06:40:23;;;;;;;13.43;10.40;;;11.50;45.80;;;;;;4994745;28;20960;-51
2022/12/05 06:42:49;;;;;;;14.90;9.80;;;11.50;46.70;;;;;;4994538;28;20254;-51
2022/12/05 06:45:14;;;;;;;15.47;10.63;;;11.50;46.00;;;;;;4993871;28;20390;-51
2022/12/05 06:47:40;;;;;;;15.17;10.67;;;11.50;45.90;;;;;;4994591;28;20174;-49
2022/12/05 06:50:07;;;;;;;15.20;12.37;;;11.50;45.90;;;;;;4994418;28;20210;-49
2022/12/05 06:52:32;;;;;;;14.48;10.50;;;11.50;45.80;;;;;;4994388;28;20171;-49
2022/12/05 06:54:58;;;;;;;14.50;10.37;;;11.50;45.70;;;;;;4994526;28;20250;-49
2022/12/05 06:57:24;;;;;;;13.37;11.87;;;11.50;45.80;;;;;;4994480;28;20175;-48
2022/12/05 06:59:50;;;;;;;15.10;10.90;;;11.60;45.50;;;;;;4993338;28;20859;-49
2022/12/05 07:02:16;;;;;;;14.97;11.07;;;11.60;45.50;;;;;;4993943;28;20258;-48
2022/12/05 07:04:41;;;;;;;14.13;10.67;;;11.50;45.60;;;;;;4994142;28;20191;-49
2022/12/05 07:07:07;;;;;;;12.60;9.87;;;11.50;45.60;;;;;;4994277;28;20168;-49
2022/12/05 07:09:46;;;;;;;18.83;11.77;;;11.50;45.70;;;;;;4994062;28;20245;-49
2022/12/05 07:12:14;;;;;;;16.00;11.02;;;11.50;45.80;;;;;;4993999;28;20178;-51
2022/12/05 07:14:40;;;;;;;15.80;10.48;;;11.50;45.70;;;;;;4994175;28;20254;-48
2022/12/05 07:17:06;;;;;;;13.25;11.00;;;11.50;45.90;;;;;;4993920;28;20171;-49
2022/12/05 07:19:32;;;;;;;15.40;9.63;;;11.50;45.80;;;;;;4993989;28;20250;-48
2022/12/05 07:21:57;;;;;;;13.10;10.43;;;11.50;45.80;;;;;;4993748;28;20419;-48
2022/12/05 07:24:23;;;;;;;12.90;9.77;;;11.60;45.80;;;;;;4993863;28;20196;-48
2022/12/05 07:26:49;;;;;;;14.10;10.73;;;11.60;45.60;;;;;;4993977;28;20511;-49
2022/12/05 07:29:14;;;;;;;13.07;10.30;;;11.60;45.60;;;;;;4993790;28;20222;-48
2022/12/05 07:31:40;;;;;;;13.20;9.40;;;11.60;45.50;;;;;;4993706;28;20171;-48
2022/12/05 07:34:06;;;;;;;15.10;10.17;;;11.60;45.60;;;;;;4993561;28;20638;-49
2022/12/05 07:36:32;;;;;;;14.33;9.70;;;11.60;45.70;;;;;;4993729;28;20299;-49
2022/12/05 07:38:58;;;;;;;12.37;10.33;;;11.60;45.70;;;;;;4993672;28;20242;-49
2022/12/05 07:41:29;;;;;;;17.08;11.05;;;11.60;45.60;;;;;;4993526;28;20191;-49
2022/12/05 07:43:56;;;;;;;14.13;9.23;;;11.70;45.60;;;;;;4993323;28;20179;-49
2022/12/05 07:46:23;;;;;;;14.30;11.68;;;11.60;45.40;;;;;;4993428;28;20171;-48
2022/12/05 07:48:49;;;;;;;22.15;14.32;;;11.60;45.30;;;;;;4993415;28;20178;-49
2022/12/05 07:51:16;;;;;;;29.20;20.33;;;11.60;45.40;;;;;;4993356;28;20199;-49
2022/12/05 07:53:43;;;;;;;42.60;24.45;;;11.50;45.60;;;;;;4993157;28;20930;-49
2022/12/05 07:56:15;;;;;;;40.45;26.33;;;11.50;45.70;;;;;;4993377;28;20645;-48
2022/12/05 07:58:41;;;;;;;41.22;23.80;;;11.40;45.70;;;;;;4993329;28;20266;-49
2022/12/05 08:01:17;;;;;;;36.63;23.50;;;11.30;46.00;;;;;;4993109;28;20588;-49
2022/12/05 08:03:44;;;;;;;36.13;25.35;;;11.20;46.10;;;;;;4992983;28;20167;-48
2022/12/05 08:06:15;;;;;;;42.80;26.33;;;11.10;46.30;;;;;;4993089;28;20203;-49
2022/12/05 08:08:42;;;;;;;42.78;26.50;;;11.10;46.50;;;;;;4993166;28;20175;-49
2022/12/05 08:11:16;;;;;;;44.92;26.65;;;11.00;46.60;;;;;;4993013;28;20183;-48
2022/12/05 08:13:42;;;;;;;39.60;25.13;;;10.90;46.90;;;;;;4992842;28;20703;-48
2022/12/05 08:16:11;;;;;;;39.40;26.03;;;10.80;46.90;;;;;;4993020;28;20183;-49
2022/12/05 08:18:37;;;;;;;39.28;25.33;;;10.80;47.10;;;;;;4992967;28;20181;-48
2022/12/05 08:21:10;;;;;;;35.30;23.73;;;10.80;47.10;;;;;;4993004;28;20624;-48
2022/12/05 08:23:36;;;;;;;34.42;25.13;;;10.90;47.10;;;;;;4992680;28;20393;-49
2022/12/05 08:26:07;;;;;;;36.10;25.08;;;10.90;47.00;;;;;;4992733;28;20195;-49
2022/12/05 08:28:33;;;;;;;38.80;24.48;;;11.00;46.90;;;;;;4992814;28;20195;-49
2022/12/05 08:31:14;;;;;;;33.37;23.07;;;11.10;46.80;;;;;;4992753;28;20222;-49
2022/12/05 08:33:40;;;;;;;37.30;21.90;;;11.10;46.80;;;;;;4992541;28;20410;-48
2022/12/05 08:36:09;;;;;;;38.70;24.63;;;11.10;46.70;;;;;;4992779;28;20291;-49
2022/12/05 08:38:35;;;;;;;39.30;24.67;;;11.20;46.70;;;;;;4992663;28;20717;-49
2022/12/05 08:52:03;;;;;;;33.85;22.48;;;11.20;46.60;;;;;;4992649;28;20213;-49
2022/12/05 08:54:28;;;;;;;41.15;24.13;;;11.20;46.70;;;;;;4992285;28;20175;-49
2022/12/05 08:56:54;;;;;;;35.33;23.43;;;11.20;46.80;;;;;;4992485;28;20183;-49
2022/12/05 08:59:20;;;;;;;42.23;25.80;;;11.30;46.90;;;;;;4992333;28;20649;-48
2022/12/05 09:01:48;;;;;;;45.17;29.47;;;11.30;46.80;;;;;;4992440;28;20204;-48
2022/12/05 09:04:14;;;;;;;38.05;25.15;;;11.30;46.80;;;;;;4992324;28;20174;-49
2022/12/05 09:06:40;;;;;;;38.47;28.27;;;11.40;46.50;;;;;;4992533;28;20167;-48
2022/12/05 09:09:10;;;;;;;38.38;26.83;;;11.40;46.50;;;;;;4994164;28;20502;-48
2022/12/05 09:11:44;;;;;;;41.60;28.73;;;11.40;46.50;;;;;;4996417;28;20179;-49
2022/12/05 09:14:11;;;;;;;40.17;27.15;;;11.40;46.40;;;;;;4996218;28;20226;-49
2022/12/05 09:16:37;;;;;;;38.35;26.85;;;11.40;46.50;;;;;;4996231;28;20182;-49
2022/12/05 09:19:03;;;;;;;37.08;26.60;;;11.50;46.50;;;;;;4996267;28;20167;-49
2022/12/05 09:21:30;;;;;;;38.73;27.43;;;11.50;46.30;;;;;;4996058;28;20199;-49
2022/12/05 09:24:00;;;;;;;37.40;25.73;;;11.40;46.30;;;;;;4995981;28;20892;-49
2022/12/05 09:26:27;;;;;;;43.67;27.23;;;11.50;46.40;;;;;;4996031;28;20206;-48
2022/12/05 09:28:53;;;;;;;39.83;27.63;;;11.50;46.30;;;;;;4996014;28;20558;-48
2022/12/05 09:31:21;;;;;;;39.58;24.75;;;11.40;46.20;;;;;;4995898;28;20234;-49
2022/12/05 09:33:49;;;;;;;39.22;24.67;;;11.40;46.30;;;;;;4995740;28;20175;-49
2022/12/05 09:36:18;;;;;;;32.72;23.92;;;11.40;46.30;;;;;;4996003;28;20266;-48
2022/12/05 09:38:45;;;;;;;53.08;26.58;;;11.40;46.40;;;;;;4995918;28;20175;-48
2022/12/05 09:44:56;;;;;;;34.67;24.85;;;11.40;46.50;;;;;;4995973;28;20727;-49
2022/12/05 09:47:46;;;;;;;39.45;27.20;;;11.40;46.60;;;;;;4995731;28;20168;-49
2022/12/05 09:50:32;;;;;;;38.95;24.15;;;11.40;46.80;;;;;;4995547;28;20207;-49
2022/12/05 09:53:10;;;;;;;44.38;28.70;;;11.40;47.00;;;;;;4995484;28;20536;-49
2022/12/05 09:55:39;;;;;;;42.53;29.52;;;11.40;46.90;;;;;;4995577;28;20171;-48
2022/12/05 09:58:34;;;;;;;38.85;28.98;;;11.40;46.80;;;;;;4995562;28;20240;-49
2022/12/05 10:01:14;;;;;;;44.53;29.55;;;11.40;46.80;;;;;;4992291;28;20716;-49
2022/12/05 10:03:55;;;;;;;46.70;30.30;;;11.40;46.90;;;;;;4995279;28;20182;-49
2022/12/05 10:06:25;;;;;;;43.00;29.27;;;11.40;47.00;;;;;;4995349;28;20209;-49
2022/12/05 10:09:05;;;;;;;64.43;33.33;;;11.40;47.00;;;;;;4995337;28;20240;-49
2022/12/05 10:11:43;;;;;;;51.75;30.23;;;11.40;47.10;;;;;;4995173;28;20199;-49
2022/12/05 10:14:14;;;;;;;45.83;31.60;;;11.40;47.00;;;;;;4995156;28;20629;-49
2022/12/05 10:16:47;;;;;;;45.65;30.60;;;11.20;46.90;;;;;;4995227;28;20175;-49
2022/12/05 10:19:20;;;;;;;43.00;30.63;;;11.50;47.10;;;;;;4993813;28;20175;-49
2022/12/05 10:22:02;;;;;;;49.42;29.80;;;11.40;47.00;;;;;;4994145;28;20246;-49
2022/12/05 10:24:36;;;;;;;47.30;30.70;;;11.50;46.90;;;;;;4995093;28;20290;-49
2022/12/05 10:27:06;;;;;;;43.13;29.02;;;11.60;46.80;;;;;;4995029;28;20637;-48
2022/12/05 10:29:46;;;;;;;41.45;28.17;;;11.60;46.80;;;;;;4994836;28;20322;-49
2022/12/05 10:32:41;;;;;;;45.53;27.13;;;11.60;46.80;;;;;;4994803;28;20166;-49
2022/12/05 10:35:20;;;;;;;44.97;27.63;;;11.60;46.70;;;;;;4994640;28;20571;-49
2022/12/05 10:37:50;;;;;;;37.72;23.90;;;11.70;46.70;;;;;;4994835;28;20176;-51
2022/12/05 10:40:17;;;;;;;35.45;24.60;;;11.60;46.70;;;;;;4994787;28;20217;-51
2022/12/05 10:42:43;;;;;;;42.70;27.33;;;11.60;46.70;;;;;;4994557;28;20172;-51
2022/12/05 10:45:17;;;;;;;43.50;26.88;;;11.70;46.80;;;;;;4993460;28;20210;-51
2022/12/05 10:47:42;;;;;;;41.30;27.73;;;11.70;46.80;;;;;;4994713;28;20172;-51
2022/12/05 10:50:34;;;;;;;37.63;24.97;;;11.70;46.70;;;;;;4994527;28;20213;-51
2022/12/05 10:53:03;;;;;;;35.88;22.90;;;11.70;46.70;;;;;;4994507;28;20405;-51
2022/12/05 10:55:39;;;;;;;31.27;19.90;;;11.70;46.60;;;;;;4994478;28;20195;-51
2022/12/05 10:58:25;;;;;;;27.10;16.60;;;11.70;46.60;;;;;;4994438;28;20596;-51
2022/12/05 11:00:54;;;;;;;23.27;12.77;;;11.70;46.20;;;;;;4994373;28;20198;-51
2022/12/05 11:03:30;;;;;;;16.88;11.25;;;11.70;45.00;;;;;;4994228;28;20179;-51
2022/12/05 11:06:02;;;;;;;19.73;11.95;;;11.50;44.70;;;;;;4994313;28;20210;-51
2022/12/05 11:08:32;;;;;;;18.55;11.88;;;11.40;44.60;;;;;;4994334;28;20171;-51
2022/12/05 11:11:18;;;;;;;18.75;10.77;;;11.30;44.60;;;;;;4994192;28;20191;-51
2022/12/05 11:13:53;;;;;;;17.98;11.00;;;11.30;44.90;;;;;;4994135;28;20704;-52
2022/12/05 11:16:26;;;;;;;21.90;12.88;;;11.40;45.20;;;;;;4994166;28;20202;-51
2022/12/05 11:18:52;;;;;;;18.42;11.82;;;11.40;45.40;;;;;;4994076;28;20709;-52
2022/12/05 11:21:18;;;;;;;20.38;11.50;;;11.50;45.60;;;;;;4994008;28;20195;-51
2022/12/05 11:23:45;;;;;;;18.75;12.25;;;11.60;45.00;;;;;;4993798;28;20657;-51
2022/12/05 11:26:37;;;;;;;16.60;10.90;;;11.60;44.80;;;;;;4993914;28;20557;-49
2022/12/05 11:29:03;;;;;;;11.88;9.00;;;11.60;44.30;;;;;;4993980;28;20175;-49
2022/12/05 11:31:30;;;;;;;19.05;12.10;;;11.60;44.10;;;;;;4993415;28;20199;-49
2022/12/05 11:34:26;;;;;;;19.50;12.45;;;11.60;44.10;;;;;;4993585;28;20218;-48
2022/12/05 11:37:12;;;;;;;16.80;10.68;;;11.60;44.30;;;;;;4993106;28;20179;-49
2022/12/05 11:39:38;;;;;;;12.60;9.80;;;11.60;44.70;;;;;;4993595;28;20194;-49
2022/12/05 11:42:16;;;;;;;17.00;10.47;;;11.60;44.80;;;;;;4993429;28;20253;-49
2022/12/05 11:45:11;;;;;;;17.08;10.13;;;11.70;44.80;;;;;;4993301;28;20457;-49
2022/12/05 11:47:55;;;;;;;17.90;10.88;;;11.70;44.10;;;;;;4993306;28;20183;-49
2022/12/05 11:50:54;;;;;;;17.08;11.25;;;11.60;44.30;;;;;;4993367;28;20207;-49
2022/12/05 11:53:47;;;;;;;20.33;12.07;;;11.70;44.70;;;;;;4993533;28;20622;-49
2022/12/05 11:56:38;;;;;;;14.35;10.75;;;11.70;44.90;;;;;;4993405;28;20148;-49
2022/12/05 11:59:12;;;;;;;17.58;11.57;;;11.70;44.40;;;;;;4993329;28;20694;-49
2022/12/05 12:02:12;;;;;;;18.65;11.07;;;11.70;44.70;;;;;;4993218;28;20178;-49
2022/12/05 12:05:03;;;;;;;15.25;10.20;;;11.80;44.70;;;;;;4993160;28;20191;-49
2022/12/05 12:07:43;;;;;;;14.60;10.38;;;11.80;44.70;;;;;;4993131;28;20172;-49
2022/12/05 12:10:18;;;;;;;14.48;10.65;;;11.80;44.80;;;;;;4993096;28;20273;-49
2022/12/05 12:12:49;;;;;;;16.75;11.10;;;11.80;44.90;;;;;;4992973;28;20183;-48
2022/12/05 12:15:26;;;;;;;14.02;10.48;;;11.80;44.60;;;;;;4993106;28;20171;-49
2022/12/05 12:18:11;;;;;;;14.07;9.05;;;11.80;44.30;;;;;;4993065;28;20253;-49
2022/12/05 12:20:58;;;;;;;20.02;11.40;;;11.90;44.10;;;;;;4992870;28;20191;-49
2022/12/05 12:23:55;;;;;;;17.85;11.93;;;11.80;44.30;;;;;;4992719;28;20561;-49
2022/12/05 12:26:39;;;;;;;19.77;11.13;;;11.90;44.60;;;;;;4992805;28;20190;-49
2022/12/05 12:29:16;;;;;;;15.50;10.82;;;11.90;44.40;;;;;;4992810;28;20167;-48
2022/12/05 12:31:57;;;;;;;15.18;8.52;;;11.80;44.30;;;;;;4992806;28;20170;-49
2022/12/05 12:34:31;;;;;;;13.40;9.27;;;11.80;44.00;;;;;;4992799;28;20163;-49
2022/12/05 12:37:15;;;;;;;11.18;9.00;;;11.80;44.10;;;;;;4992698;28;20171;-48
2022/12/05 12:39:52;;;;;;;15.60;9.48;;;11.80;44.10;;;;;;4992637;28;20218;-49
2022/12/05 12:42:33;;;;;;;14.68;10.13;;;11.80;43.90;;;;;;4992483;28;20159;-48
2022/12/05 12:45:36;;;;;;;15.93;10.13;;;11.80;44.10;;;;;;4992030;28;20203;-49
2022/12/05 12:48:11;;;;;;;14.02;9.05;;;11.80;44.30;;;;;;4992601;28;20185;-48
2022/12/05 12:50:43;;;;;;;14.35;9.15;;;11.80;44.30;;;;;;4992354;28;20668;-49
2022/12/05 12:53:44;;;;;;;11.98;8.68;;;11.80;44.40;;;;;;4992436;28;20167;-49
2022/12/05 12:56:20;;;;;;;17.67;10.35;;;11.80;45.10;;;;;;4992516;28;20170;-49
2022/12/05 12:58:50;;;;;;;13.77;9.10;;;11.90;44.40;;;;;;4992658;28;20211;-49
2022/12/05 13:01:47;;;;;;;10.48;8.95;;;11.90;43.80;;;;;;4992542;28;20207;-49
2022/12/05 13:04:22;;;;;;;14.25;9.55;;;11.80;43.90;;;;;;4992349;28;20166;-49
2022/12/05 13:07:07;;;;;;;12.10;8.73;;;11.80;44.80;;;;;;4992483;28;20186;-49
2022/12/05 13:09:39;;;;;;;15.30;8.75;;;11.80;44.10;;;;;;4992294;28;20592;-49
2022/12/05 13:12:17;;;;;;;11.00;8.98;;;11.80;44.10;;;;;;4992304;28;20229;-52
2022/12/05 13:15:06;;;;;;;11.25;8.45;;;11.90;43.80;;;;;;4992492;28;20186;-49
2022/12/05 13:17:32;;;;;;;11.18;8.30;;;11.90;43.80;;;;;;4992351;28;20620;-49
2022/12/05 13:19:59;;;;;;;11.35;8.68;;;11.80;43.70;;;;;;4992182;28;20198;-49
2022/12/05 13:22:27;;;;;;;11.90;7.95;;;11.80;43.70;;;;;;4992015;28;20178;-49